createdAt,value
2022-12-07T00:01:29.512Z,66.17
2022-12-07T00:04:01.561Z,66.61
2022-12-07T00:06:28.210Z,66.47
2022-12-07T00:08:54.775Z,66.18
2022-12-07T00:11:22.929Z,65.65
2022-12-07T00:13:54.657Z,66.36
2022-12-07T00:16:26.178Z,66.46
2022-12-07T00:18:52.808Z,67.01
2022-12-07T00:21:24.355Z,67.59
2022-12-07T00:23:52.647Z,67.29
2022-12-07T00:26:24.381Z,67.80
2022-12-07T00:28:54.212Z,67.42
2022-12-07T00:31:22.281Z,67.40
2022-12-07T00:33:49.264Z,67.39
2022-12-07T00:36:20.775Z,67.10
2022-12-07T00:38:50.198Z,66.19
2022-12-07T00:41:19.428Z,66.70
2022-12-07T00:43:46.746Z,66.75
2022-12-07T00:46:14.401Z,67.43
2022-12-07T00:48:41.480Z,65.82
2022-12-07T00:51:08.600Z,66.14
2022-12-07T00:53:41.125Z,66.04
2022-12-07T00:56:09.673Z,65.94
2022-12-07T00:58:36.197Z,66.15
2022-12-07T01:01:04.082Z,65.67
2022-12-07T01:03:31.012Z,65.58
2022-12-07T01:05:58.194Z,65.21
2022-12-07T01:08:25.873Z,65.09
2022-12-07T01:11:04.524Z,65.60
2022-12-07T01:13:31.647Z,66.05
2022-12-07T01:16:00.813Z,66.63
2022-12-07T01:18:28.655Z,66.00
2022-12-07T01:21:07.009Z,66.02
2022-12-07T01:23:34.874Z,66.16
2022-12-07T01:26:04.262Z,66.29
2022-12-07T01:28:30.791Z,67.04
2022-12-07T01:31:08.688Z,66.75
2022-12-07T01:33:37.057Z,66.22
2022-12-07T01:36:08.220Z,67.50
2022-12-07T01:38:34.935Z,68.01
2022-12-07T01:41:02.346Z,68.55
2022-12-07T01:43:30.095Z,68.90
2022-12-07T01:45:56.894Z,68.02
2022-12-07T01:48:28.743Z,68.93
2022-12-07T01:50:56.949Z,68.60
2022-12-07T01:53:25.545Z,68.32
2022-12-07T01:55:53.412Z,68.85
2022-12-07T01:58:20.275Z,68.61
2022-12-07T02:00:47.021Z,69.05
2022-12-07T02:03:21.160Z,70.04
2022-12-07T02:05:47.928Z,69.10
2022-12-07T02:08:15.529Z,68.89
2022-12-07T02:10:42.132Z,67.88
2022-12-07T02:13:13.036Z,68.27
2022-12-07T02:15:39.542Z,68.71
2022-12-07T02:18:10.988Z,68.41
2022-12-07T02:20:48.941Z,69.24
2022-12-07T02:23:57.479Z,68.97
2022-12-07T02:27:01.249Z,69.15
2022-12-07T02:29:50.389Z,68.81
2022-12-07T02:32:32.330Z,69.17
2022-12-07T02:35:25.280Z,68.99
2022-12-07T02:38:03.937Z,68.92
2022-12-07T02:40:41.595Z,69.89
2022-12-07T02:43:29.061Z,69.78
2022-12-07T02:46:06.348Z,69.86
2022-12-07T02:48:34.342Z,69.57
2022-12-07T02:51:00.959Z,68.99
2022-12-07T02:53:40.483Z,68.23
2022-12-07T02:56:22.179Z,68.65
2022-12-07T02:59:00.773Z,67.63
2022-12-07T03:01:34.714Z,67.22
2022-12-07T03:04:39.924Z,67.12
2022-12-07T03:07:45.279Z,66.73
2022-12-07T03:10:14.577Z,66.79
2022-12-07T03:13:15.539Z,66.94
2022-12-07T03:16:11.423Z,66.68
2022-12-07T03:18:46.551Z,67.32
2022-12-07T03:21:17.045Z,67.57
2022-12-07T03:23:46.409Z,66.92
2022-12-07T03:26:14.519Z,66.73
2022-12-07T03:28:44.251Z,66.89
2022-12-07T03:31:20.887Z,67.36
2022-12-07T03:33:52.933Z,67.37
2022-12-07T03:36:28.759Z,67.13
2022-12-07T03:39:01.980Z,67.57
2022-12-07T03:41:31.364Z,66.71
2022-12-07T03:43:58.644Z,66.40
2022-12-07T03:47:02.583Z,66.57
2022-12-07T03:49:52.921Z,66.09
2022-12-07T03:52:45.853Z,66.66
2022-12-07T03:55:20.117Z,66.95
2022-12-07T03:57:49.638Z,66.67
2022-12-07T04:00:16.511Z,67.00
2022-12-07T04:02:44.056Z,67.07
2022-12-07T04:05:11.593Z,66.97
2022-12-07T04:07:38.135Z,67.12
2022-12-07T04:10:06.008Z,67.26
2022-12-07T04:12:32.691Z,66.37
2022-12-07T04:14:59.251Z,65.85
2022-12-07T04:17:25.778Z,66.35
2022-12-07T04:19:52.311Z,69.57
2022-12-07T04:22:18.810Z,70.73
2022-12-07T04:24:45.308Z,72.75
2022-12-07T04:27:11.812Z,71.83
2022-12-07T04:29:38.416Z,69.51
2022-12-07T04:32:05.240Z,68.14
2022-12-07T04:34:31.744Z,68.81
2022-12-07T04:36:58.302Z,68.45
2022-12-07T04:39:29.480Z,68.12
2022-12-07T04:41:56.918Z,68.19
2022-12-07T04:44:24.478Z,67.79
2022-12-07T04:46:51.797Z,67.93
2022-12-07T04:49:18.965Z,67.58
2022-12-07T04:51:46.070Z,67.75
2022-12-07T04:54:13.367Z,67.75
2022-12-07T04:56:39.969Z,68.31
2022-12-07T04:59:07.005Z,67.42
2022-12-07T05:01:34.199Z,67.28
2022-12-07T05:04:00.685Z,67.20
2022-12-07T05:06:27.231Z,66.26
2022-12-07T05:08:53.734Z,66.55
2022-12-07T05:11:39.170Z,66.98
2022-12-07T05:14:20.401Z,67.74
2022-12-07T05:16:49.515Z,67.17
2022-12-07T05:19:16.458Z,67.51
2022-12-07T05:21:43.020Z,68.24
2022-12-07T05:24:11.330Z,67.88
2022-12-07T05:26:37.860Z,68.03
2022-12-07T05:29:05.078Z,66.88
2022-12-07T05:31:31.925Z,66.99
2022-12-07T05:33:58.471Z,66.94
2022-12-07T05:36:24.975Z,67.40
2022-12-07T05:38:51.481Z,67.83
2022-12-07T05:41:37.870Z,67.63
2022-12-07T05:44:05.375Z,67.99
2022-12-07T05:46:32.010Z,67.92
2022-12-07T05:48:58.505Z,68.15
2022-12-07T05:51:25.075Z,68.42
2022-12-07T05:53:51.683Z,68.16
2022-12-07T05:56:18.310Z,68.29
2022-12-07T05:59:07.660Z,67.85
2022-12-07T06:01:34.215Z,68.34
2022-12-07T06:04:00.723Z,68.11
2022-12-07T06:06:27.548Z,67.71
2022-12-07T06:08:54.182Z,67.79
2022-12-07T06:11:40.992Z,67.81
2022-12-07T06:14:07.510Z,67.87
2022-12-07T06:16:34.158Z,68.32
2022-12-07T06:19:01.379Z,67.21
2022-12-07T06:21:28.124Z,67.31
2022-12-07T06:23:54.625Z,68.06
2022-12-07T06:26:21.337Z,67.98
2022-12-07T06:28:50.423Z,68.26
2022-12-07T06:31:17.072Z,68.15
2022-12-07T06:33:43.738Z,67.56
2022-12-07T06:36:13.838Z,67.82
2022-12-07T06:38:40.500Z,68.27
2022-12-07T06:41:07.594Z,67.99
2022-12-07T06:43:34.352Z,66.50
2022-12-07T06:46:00.891Z,66.33
2022-12-07T06:48:27.446Z,66.21
2022-12-07T06:50:55.436Z,66.36
2022-12-07T06:53:22.654Z,67.41
2022-12-07T06:55:49.322Z,67.49
2022-12-07T06:58:15.862Z,66.82
2022-12-07T07:00:42.386Z,67.16
2022-12-07T07:03:09.023Z,66.29
2022-12-07T07:05:35.749Z,66.60
2022-12-07T07:10:50.153Z,66.63
2022-12-07T07:13:16.656Z,66.96
2022-12-07T07:15:43.550Z,67.01
2022-12-07T07:18:10.224Z,67.47
2022-12-07T07:20:38.786Z,67.56
2022-12-07T07:23:05.596Z,66.74
2022-12-07T07:25:32.196Z,66.22
2022-12-07T07:27:58.880Z,65.48
2022-12-07T07:30:25.528Z,65.48
2022-12-07T07:32:52.130Z,65.45
2022-12-07T07:35:18.824Z,66.05
2022-12-07T07:37:45.379Z,65.99
2022-12-07T07:40:12.108Z,66.08
2022-12-07T07:42:38.670Z,66.03
2022-12-07T07:45:05.620Z,64.92
2022-12-07T07:47:32.387Z,65.52
2022-12-07T07:49:58.964Z,65.51
2022-12-07T07:52:25.613Z,65.76
2022-12-07T07:54:52.166Z,64.82
2022-12-07T07:57:18.752Z,64.18
2022-12-07T07:59:48.500Z,65.16
2022-12-07T08:02:17.584Z,64.12
2022-12-07T08:04:44.798Z,64.17
2022-12-07T08:07:12.220Z,64.37
2022-12-07T08:09:39.103Z,64.37
2022-12-07T08:12:07.344Z,65.28
2022-12-07T08:14:34.862Z,64.24
2022-12-07T08:17:01.358Z,64.21
2022-12-07T08:19:27.845Z,63.93
2022-12-07T08:21:56.438Z,64.22
2022-12-07T08:24:23.640Z,63.83
2022-12-07T08:26:51.375Z,64.24
2022-12-07T08:29:18.505Z,64.31
2022-12-07T08:31:45.187Z,63.93
2022-12-07T08:34:12.954Z,63.20
2022-12-07T08:36:39.679Z,63.00
2022-12-07T08:41:55.907Z,62.84
2022-12-07T08:44:22.474Z,62.40
2022-12-07T08:46:52.980Z,62.04
2022-12-07T08:49:22.936Z,61.35
2022-12-07T08:51:49.535Z,60.92
2022-12-07T08:54:18.690Z,60.80
2022-12-07T08:56:46.283Z,61.23
2022-12-07T08:59:16.066Z,61.12
2022-12-07T09:01:42.779Z,61.10
2022-12-07T09:04:09.620Z,60.43
2022-12-07T09:06:36.206Z,59.79
2022-12-07T09:09:04.939Z,58.77
2022-12-07T09:11:31.699Z,57.82
2022-12-07T09:14:00.290Z,58.82
2022-12-07T09:16:26.979Z,58.01
2022-12-07T09:18:53.589Z,57.98
2022-12-07T09:21:20.100Z,57.22
2022-12-07T09:23:46.682Z,56.72
2022-12-07T09:26:13.441Z,57.98
2022-12-07T09:28:40.358Z,56.45
2022-12-07T09:31:24.489Z,57.31
2022-12-07T09:34:00.168Z,58.07
2022-12-07T09:36:27.953Z,58.41
2022-12-07T09:38:54.697Z,58.68
2022-12-07T09:41:24.613Z,59.45
2022-12-07T09:43:51.576Z,57.03
2022-12-07T09:46:20.500Z,57.17
2022-12-07T09:48:48.859Z,56.89
2022-12-07T09:51:24.008Z,57.77
2022-12-07T09:53:53.181Z,56.97
2022-12-07T09:56:26.566Z,57.87
2022-12-07T09:59:01.080Z,56.74
2022-12-07T10:01:32.702Z,56.75
2022-12-07T10:04:17.638Z,57.12
2022-12-07T10:06:44.436Z,58.09
2022-12-07T10:09:12.606Z,58.08
2022-12-07T10:12:01.493Z,59.20
2022-12-07T10:14:58.871Z,57.80
2022-12-07T10:17:31.782Z,57.99
2022-12-07T10:20:17.258Z,58.19
2022-12-07T10:23:19.319Z,56.79
2022-12-07T10:25:46.206Z,56.67
2022-12-07T10:28:17.949Z,56.63
2022-12-07T10:30:49.896Z,57.37
2022-12-07T10:33:39.255Z,58.77
2022-12-07T10:36:21.966Z,58.39
2022-12-07T10:38:54.949Z,59.51
2022-12-07T10:41:21.693Z,58.98
2022-12-07T10:43:54.705Z,58.97
2022-12-07T10:46:47.943Z,58.61
2022-12-07T10:49:55.975Z,57.46
2022-12-07T10:52:37.455Z,57.43
2022-12-07T10:55:15.069Z,57.09
2022-12-07T10:58:05.042Z,57.16
2022-12-07T11:01:10.614Z,57.48
2022-12-07T11:03:58.366Z,58.26
2022-12-07T11:06:53.647Z,58.61
2022-12-07T11:10:07.270Z,58.64
2022-12-07T11:12:37.774Z,58.62
2022-12-07T11:15:25.458Z,59.99
2022-12-07T11:18:29.110Z,60.36
2022-12-07T11:21:29.599Z,61.46
2022-12-07T11:24:09.616Z,59.59
2022-12-07T11:27:04.030Z,60.76
2022-12-07T11:30:02.018Z,61.10
2022-12-07T11:32:50.333Z,60.94
2022-12-07T11:35:32.541Z,62.58
2022-12-07T11:38:03.634Z,62.22
2022-12-07T11:40:36.962Z,61.85
2022-12-07T11:43:14.749Z,62.24
2022-12-07T11:45:43.531Z,63.06
2022-12-07T11:48:34.371Z,62.41
2022-12-07T11:51:02.418Z,63.99
2022-12-07T11:53:47.073Z,62.85
2022-12-07T11:56:15.999Z,63.37
2022-12-07T11:58:51.547Z,63.07
2022-12-07T12:01:39.181Z,64.49
2022-12-07T12:04:21.928Z,63.62
2022-12-07T12:06:50.473Z,64.93
2022-12-07T12:15:16.777Z,63.64
2022-12-07T12:18:07.324Z,63.33
2022-12-07T12:20:47.932Z,63.97
2022-12-07T12:23:23.586Z,63.10
2022-12-07T12:26:02.452Z,64.19
2022-12-07T12:28:31.870Z,63.78
2022-12-07T12:31:11.502Z,62.10
2022-12-07T12:33:39.716Z,62.23
2022-12-07T12:36:18.399Z,61.50
2022-12-07T12:38:59.973Z,63.08
2022-12-07T12:41:39.229Z,63.39
2022-12-07T12:44:20.765Z,63.57
2022-12-07T12:46:58.206Z,63.09
2022-12-07T12:49:25.946Z,64.24
2022-12-07T12:52:01.400Z,63.71
2022-12-07T12:54:33.300Z,63.23
2022-12-07T12:57:24.505Z,63.99
2022-12-07T12:59:53.933Z,62.94
2022-12-07T13:02:30.197Z,63.76
2022-12-07T13:04:59.846Z,63.07
2022-12-07T13:07:48.209Z,63.06
2022-12-07T13:10:35.513Z,63.12
2022-12-07T13:13:15.152Z,63.03
2022-12-07T13:15:50.282Z,63.16
2022-12-07T13:18:25.671Z,63.46
2022-12-07T13:21:02.007Z,63.72
2022-12-07T13:23:46.867Z,62.88
2022-12-07T13:26:34.393Z,62.40
2022-12-07T13:29:23.994Z,63.33
2022-12-07T13:31:53.086Z,61.95
2022-12-07T13:34:36.765Z,62.33
2022-12-07T13:37:22.854Z,61.60
2022-12-07T13:39:54.523Z,61.36
2022-12-07T13:42:27.226Z,61.07
2022-12-07T13:44:54.351Z,61.62
2022-12-07T13:47:36.180Z,62.75
2022-12-07T13:50:02.853Z,62.92
2022-12-07T13:52:31.251Z,62.64
2022-12-07T13:55:07.086Z,61.57
2022-12-07T13:57:36.256Z,62.75
2022-12-07T14:00:05.696Z,61.84
2022-12-07T14:02:35.283Z,61.90
2022-12-07T14:05:16.210Z,61.28
2022-12-07T14:08:01.752Z,61.33
2022-12-07T14:10:56.140Z,61.16
2022-12-07T14:13:40.099Z,61.99
2022-12-07T14:16:19.138Z,61.95
2022-12-07T14:18:45.786Z,61.70
2022-12-07T14:21:18.087Z,61.35
2022-12-07T14:23:44.740Z,62.30
2022-12-07T14:26:16.772Z,62.16
2022-12-07T14:28:44.401Z,63.01
2022-12-07T14:31:26.199Z,64.20
2022-12-07T14:34:00.383Z,62.83
2022-12-07T14:36:26.890Z,64.09
2022-12-07T14:38:55.234Z,64.00
2022-12-07T14:41:41.241Z,63.56
2022-12-07T14:44:34.058Z,63.11
2022-12-07T14:49:46.130Z,62.77
2022-12-07T14:55:04.853Z,63.19
2022-12-07T14:57:31.578Z,62.88
2022-12-07T14:59:58.052Z,61.14
2022-12-07T15:02:24.547Z,62.07
2022-12-07T15:04:51.067Z,62.03
2022-12-07T15:07:21.910Z,61.70
2022-12-07T15:09:49.461Z,62.51
2022-12-07T15:12:16.315Z,64.87
2022-12-07T15:14:42.958Z,63.51
2022-12-07T15:17:23.132Z,64.37
2022-12-07T15:19:54.584Z,64.01
2022-12-07T15:22:21.092Z,65.32
2022-12-07T15:24:48.070Z,64.27
2022-12-07T15:27:14.618Z,64.55
2022-12-07T15:29:41.381Z,64.76
2022-12-07T15:32:07.947Z,65.88
2022-12-07T15:34:40.068Z,66.19
2022-12-07T15:37:07.478Z,64.98
2022-12-07T15:39:33.988Z,64.72
2022-12-07T15:42:00.568Z,65.87
2022-12-07T15:44:45.748Z,64.12
2022-12-07T15:47:12.339Z,65.48
2022-12-07T15:49:39.020Z,65.90
2022-12-07T15:52:05.549Z,64.98
2022-12-07T15:54:33.172Z,65.54
2022-12-07T15:57:08.041Z,64.69
2022-12-07T15:59:34.862Z,65.52
2022-12-07T16:02:01.461Z,66.01
2022-12-07T16:04:30.797Z,65.65
2022-12-07T16:06:58.024Z,64.39
2022-12-07T16:09:24.674Z,64.93
2022-12-07T16:11:51.560Z,64.44
2022-12-07T16:14:18.169Z,64.42
2022-12-07T16:16:44.723Z,63.93
2022-12-07T16:19:12.047Z,63.96
2022-12-07T16:21:38.669Z,63.90
2022-12-07T16:24:08.603Z,65.27
2022-12-07T16:26:35.304Z,65.90
2022-12-07T16:29:01.801Z,65.78
2022-12-07T16:31:29.392Z,65.09
2022-12-07T16:33:57.971Z,66.01
2022-12-07T16:36:55.320Z,65.73
2022-12-07T16:39:12.553Z,65.77
2022-12-07T16:41:39.045Z,66.69
2022-12-07T16:44:07.327Z,66.32
2022-12-07T16:46:34.207Z,67.16
2022-12-07T16:49:00.915Z,65.52
2022-12-07T16:51:27.461Z,65.16
2022-12-07T16:53:54.561Z,65.59
2022-12-07T16:56:21.224Z,65.92
2022-12-07T16:58:49.335Z,66.69
2022-12-07T17:01:18.367Z,66.77
2022-12-07T17:03:45.930Z,66.12
2022-12-07T17:06:21.335Z,65.25
2022-12-07T17:08:48.086Z,65.21
2022-12-07T17:11:19.543Z,64.60
2022-12-07T17:14:04.623Z,64.73
2022-12-07T17:16:31.721Z,64.73
2022-12-07T17:18:58.567Z,64.82
2022-12-07T17:21:25.510Z,64.11
2022-12-07T17:23:52.340Z,64.03
2022-12-07T17:26:21.980Z,64.24
2022-12-07T17:28:48.598Z,64.04
2022-12-07T17:31:16.672Z,64.92
2022-12-07T17:33:43.254Z,65.78
2022-12-07T17:36:12.046Z,65.39
2022-12-07T17:38:38.821Z,64.75
2022-12-07T17:41:43.421Z,64.55
2022-12-07T17:44:12.104Z,64.56
2022-12-07T17:46:39.536Z,64.07
2022-12-07T17:49:06.961Z,63.69
2022-12-07T17:51:52.463Z,63.70
2022-12-07T17:54:19.423Z,63.29
2022-12-07T17:56:46.492Z,63.13
2022-12-07T17:59:13.320Z,63.13
2022-12-07T18:01:40.642Z,63.11
2022-12-07T18:04:07.244Z,62.74
2022-12-07T18:06:34.195Z,63.60
2022-12-07T18:09:01.108Z,63.99
2022-12-07T18:11:27.899Z,63.95
2022-12-07T18:13:54.416Z,63.79
2022-12-07T18:16:24.347Z,63.80
2022-12-07T18:18:53.954Z,63.75
2022-12-07T18:21:23.264Z,62.72
2022-12-07T18:23:52.992Z,63.10
2022-12-07T18:26:20.581Z,62.62
2022-12-07T18:28:47.308Z,62.42
2022-12-07T18:31:15.739Z,61.82
2022-12-07T18:33:43.956Z,61.91
2022-12-07T18:36:10.920Z,62.28
2022-12-07T18:38:37.635Z,62.57
2022-12-07T18:41:06.743Z,62.95
2022-12-07T18:43:33.242Z,62.42
2022-12-07T18:45:59.780Z,62.67
2022-12-07T18:48:26.439Z,62.69
2022-12-07T18:51:01.086Z,62.69
2022-12-07T18:53:27.485Z,62.85
2022-12-07T18:56:08.802Z,63.05
2022-12-07T18:58:35.413Z,62.61
2022-12-07T19:01:02.237Z,61.67
2022-12-07T19:03:33.235Z,62.05
2022-12-07T19:06:06.086Z,62.01
2022-12-07T19:08:34.226Z,62.29
2022-12-07T19:11:23.695Z,62.34
2022-12-07T19:13:50.660Z,63.35
2022-12-07T19:16:17.306Z,63.05
2022-12-07T19:18:49.295Z,63.10
2022-12-07T19:21:17.834Z,62.47
2022-12-07T19:23:44.361Z,62.90
2022-12-07T19:26:10.884Z,62.73
2022-12-07T19:28:37.482Z,63.06
2022-12-07T19:31:08.088Z,63.04
2022-12-07T19:33:34.664Z,62.78
2022-12-07T19:36:01.149Z,62.34
2022-12-07T19:38:27.640Z,61.47
2022-12-07T19:40:54.126Z,61.46
2022-12-07T19:43:20.631Z,62.10
2022-12-07T19:45:47.299Z,62.33
2022-12-07T19:48:13.885Z,62.44
2022-12-07T19:50:40.403Z,61.91
2022-12-07T19:53:06.886Z,62.04
2022-12-07T19:55:33.344Z,62.35
2022-12-07T19:57:59.840Z,62.60
2022-12-07T20:00:26.543Z,62.89
2022-12-07T20:02:53.124Z,62.62
2022-12-07T20:05:21.911Z,62.40
2022-12-07T20:07:48.485Z,61.84
2022-12-07T20:10:15.141Z,61.95
2022-12-07T20:13:00.263Z,62.12
2022-12-07T20:15:26.725Z,62.22
2022-12-07T20:17:54.272Z,62.64
2022-12-07T20:20:20.783Z,63.22
2022-12-07T20:22:47.424Z,63.25
2022-12-07T20:25:13.955Z,63.76
2022-12-07T20:27:40.476Z,63.47
2022-12-07T20:30:07.639Z,63.89
2022-12-07T20:32:34.159Z,63.68
2022-12-07T20:35:01.083Z,63.51
2022-12-07T20:37:27.854Z,63.79
2022-12-07T20:39:55.757Z,63.07
2022-12-07T20:42:37.257Z,63.42
2022-12-07T20:45:09.541Z,63.25
2022-12-07T20:47:36.786Z,63.97
2022-12-07T20:50:04.486Z,62.91
2022-12-07T20:52:31.053Z,63.18
2022-12-07T20:54:57.529Z,63.79
2022-12-07T20:57:24.039Z,64.22
2022-12-07T20:59:50.563Z,64.38
2022-12-07T21:02:17.174Z,64.64
2022-12-07T21:04:43.727Z,64.35
2022-12-07T21:07:10.235Z,64.68
2022-12-07T21:09:36.875Z,64.35
2022-12-07T21:12:03.682Z,64.68
2022-12-07T21:14:30.199Z,65.03
2022-12-07T21:16:56.899Z,64.73
2022-12-07T21:19:24.891Z,63.57
2022-12-07T21:21:51.740Z,62.62
2022-12-07T21:24:18.212Z,62.57
2022-12-07T21:26:44.685Z,62.01
2022-12-07T21:29:11.152Z,63.01
2022-12-07T21:31:37.750Z,62.95
2022-12-07T21:34:04.956Z,62.92
2022-12-07T21:36:31.509Z,63.54
2022-12-07T21:38:58.041Z,63.65
2022-12-07T21:41:26.648Z,64.17
2022-12-07T21:43:53.313Z,64.44
2022-12-07T21:46:21.369Z,64.86
2022-12-07T21:48:52.949Z,63.72
2022-12-07T21:51:23.515Z,63.76
2022-12-07T21:53:52.027Z,63.78
2022-12-07T21:56:24.526Z,64.14
2022-12-07T21:58:52.797Z,64.19
2022-12-07T22:01:22.356Z,63.80
2022-12-07T22:03:49.489Z,63.91
2022-12-07T22:06:25.008Z,64.26
2022-12-07T22:08:52.728Z,64.51
2022-12-07T22:11:19.620Z,64.54
2022-12-07T22:14:09.924Z,64.71
2022-12-07T22:16:38.114Z,65.25
2022-12-07T22:19:05.081Z,65.34
2022-12-07T22:21:31.925Z,65.03
2022-12-07T22:23:58.624Z,65.44
2022-12-07T22:26:25.298Z,66.19
2022-12-07T22:28:52.025Z,66.35
2022-12-07T22:31:20.030Z,66.60
2022-12-07T22:33:46.763Z,65.92
2022-12-07T22:36:13.708Z,65.57
2022-12-07T22:38:40.705Z,65.21
2022-12-07T22:41:22.458Z,66.04
2022-12-07T22:43:49.105Z,65.80
2022-12-07T22:46:15.673Z,66.13
2022-12-07T22:48:42.261Z,66.06
2022-12-07T22:51:19.261Z,66.25
2022-12-07T22:53:45.749Z,65.32
2022-12-07T22:56:12.513Z,66.15
2022-12-07T22:58:39.761Z,65.83
2022-12-07T23:01:10.361Z,66.03
2022-12-07T23:03:37.192Z,66.09
2022-12-07T23:06:09.163Z,66.27
2022-12-07T23:08:35.710Z,66.53
2022-12-07T23:11:02.669Z,66.32
2022-12-07T23:13:31.799Z,66.22
2022-12-07T23:15:59.771Z,66.59
2022-12-07T23:18:26.686Z,66.44
2022-12-07T23:20:56.081Z,66.88
2022-12-07T23:23:22.575Z,66.71
2022-12-07T23:25:49.105Z,66.64
2022-12-07T23:28:15.706Z,66.85
2022-12-07T23:30:42.220Z,66.50
2022-12-07T23:33:12.674Z,66.88
2022-12-07T23:35:42.780Z,66.04
2022-12-07T23:38:09.348Z,66.42
2022-12-07T23:40:36.637Z,66.26
2022-12-07T23:43:03.257Z,66.36
2022-12-07T23:45:29.769Z,66.32
2022-12-07T23:47:56.285Z,66.34
2022-12-07T23:50:22.753Z,66.62
2022-12-07T23:52:49.283Z,66.28
2022-12-07T23:55:15.843Z,67.36
2022-12-07T23:57:42.429Z,67.45
